createdAt,value
2019-05-22T00:03:47.327Z,54176.57
2019-05-22T00:09:09.883Z,54192.72
2019-05-22T00:14:29.347Z,54163.45
2019-05-22T00:19:49.960Z,54142.25
2019-05-22T00:25:10.629Z,54192.72
2019-05-22T00:30:32.098Z,54213.91
2019-05-22T00:35:52.776Z,54154.36
2019-05-22T00:41:11.919Z,54179.60
2019-05-22T00:46:30.450Z,54186.66
2019-05-22T00:52:07.014Z,54184.64
2019-05-22T00:57:43.515Z,54159.41
2019-05-22T01:03:02.686Z,54182.62
2019-05-22T01:08:22.169Z,54164.46
2019-05-22T01:13:42.401Z,54172.53
2019-05-22T01:19:02.747Z,54209.87
2019-05-22T01:24:23.328Z,54166.48
2019-05-22T01:29:43.793Z,54205.84
2019-05-22T01:35:09.191Z,54199.79
2019-05-22T01:40:44.583Z,54179.60
2019-05-22T01:46:03.859Z,54195.75
2019-05-22T01:51:22.640Z,54180.61
2019-05-22T01:56:42.035Z,54196.76
2019-05-22T02:02:01.127Z,54190.70
2019-05-22T02:07:21.113Z,54194.74
2019-05-22T02:12:51.325Z,54151.34
2019-05-22T02:18:15.202Z,54197.77
2019-05-22T02:23:35.711Z,54227.04
2019-05-22T02:28:55.359Z,54199.79
2019-05-22T02:34:15.136Z,54192.72
2019-05-22T02:39:35.361Z,54162.44
2019-05-22T02:44:54.593Z,54158.40
2019-05-22T02:50:15.086Z,54185.65
2019-05-22T02:55:33.735Z,54198.77
2019-05-22T03:01:05.362Z,54204.83
2019-05-22T03:06:24.095Z,54205.84
2019-05-22T03:11:55.313Z,54194.74
2019-05-22T03:17:30.422Z,54185.65
2019-05-22T03:22:57.117Z,54192.72
2019-05-22T03:28:17.157Z,54196.76
2019-05-22T03:33:39.110Z,54207.86
2019-05-22T03:38:58.135Z,54195.75
2019-05-22T03:44:19.519Z,54202.81
2019-05-22T03:49:38.593Z,54195.75
2019-05-22T03:54:57.787Z,54187.67
2019-05-22T04:00:19.644Z,54181.62
2019-05-22T04:05:38.832Z,54175.56
2019-05-22T04:11:04.785Z,54195.75
2019-05-22T04:16:28.381Z,54169.50
2019-05-22T04:21:47.379Z,54209.87
2019-05-22T04:27:06.874Z,54177.58
2019-05-22T04:32:33.314Z,54187.67
2019-05-22T04:38:04.585Z,54199.79
2019-05-22T04:43:24.360Z,54193.73
2019-05-22T04:48:46.117Z,54184.64
2019-05-22T04:54:04.546Z,54189.69
2019-05-22T04:59:24.051Z,54217.95
2019-05-22T05:04:46.934Z,54160.42
2019-05-22T05:10:06.956Z,54194.74
2019-05-22T05:15:25.566Z,54163.45
2019-05-22T05:20:44.615Z,54181.62
2019-05-22T05:26:03.526Z,54185.65
2019-05-22T05:31:24.061Z,54186.66
2019-05-22T05:36:44.363Z,54184.64
2019-05-22T05:42:03.588Z,54196.76
2019-05-22T05:47:22.635Z,54205.84
2019-05-22T05:52:42.049Z,54184.64
2019-05-22T05:58:05.294Z,54167.48
2019-05-22T06:03:43.068Z,54191.71
2019-05-22T06:09:03.597Z,54215.93
2019-05-22T06:14:29.179Z,54169.50
2019-05-22T06:19:50.741Z,54155.37
2019-05-22T06:25:10.697Z,54186.66
2019-05-22T06:30:41.328Z,54185.65
2019-05-22T06:36:02.610Z,54167.48
2019-05-22T06:41:24.186Z,54204.83
2019-05-22T06:46:45.545Z,54170.51
2019-05-22T06:52:06.288Z,54191.71
2019-05-22T06:57:27.320Z,54161.43
2019-05-22T07:02:45.959Z,54139.23
2019-05-22T07:08:05.904Z,54196.76
2019-05-22T07:13:24.666Z,54201.80
2019-05-22T07:18:43.543Z,54178.59
2019-05-22T07:24:02.112Z,54171.52
2019-05-22T07:29:21.171Z,54155.37
2019-05-22T07:34:40.174Z,54163.45
2019-05-22T07:39:59.017Z,54163.45
2019-05-22T07:45:18.096Z,54206.85
2019-05-22T07:50:39.061Z,54165.47
2019-05-22T07:55:59.837Z,54200.79
2019-05-22T08:01:18.571Z,54200.79
2019-05-22T08:06:37.311Z,54156.38
2019-05-22T08:11:57.433Z,54200.79
2019-05-22T08:17:17.578Z,54236.12
2019-05-22T08:22:37.824Z,54207.86
2019-05-22T08:27:57.011Z,54196.76
2019-05-22T08:33:17.133Z,54186.66
2019-05-22T08:38:37.461Z,54177.58
2019-05-22T08:44:14.301Z,54201.80
2019-05-22T08:49:17.240Z,54178.59
2019-05-22T08:54:35.977Z,54185.65
2019-05-22T08:59:54.712Z,54201.80
2019-05-22T09:05:15.020Z,54175.56
2019-05-22T09:10:33.946Z,54181.62
2019-05-22T09:15:53.781Z,54186.66
2019-05-22T09:21:12.367Z,54160.42
2019-05-22T09:26:31.878Z,54193.73
2019-05-22T09:31:50.831Z,54202.81
2019-05-22T09:37:09.765Z,54233.09
2019-05-22T09:42:28.928Z,54213.91
2019-05-22T09:47:47.853Z,54204.83
2019-05-22T09:53:08.940Z,54193.73
2019-05-22T09:58:27.792Z,54194.74
2019-05-22T10:03:46.435Z,54205.84
2019-05-22T10:09:07.471Z,54201.80
2019-05-22T10:14:26.163Z,54176.57
2019-05-22T10:19:45.062Z,54208.87
2019-05-22T10:25:15.664Z,54184.64
2019-05-22T10:30:25.632Z,54234.10
2019-05-22T10:35:44.260Z,54209.87
2019-05-22T10:41:02.945Z,54164.46
2019-05-22T10:46:22.113Z,54209.87
2019-05-22T10:51:40.736Z,54180.61
2019-05-22T10:56:59.512Z,54228.04
2019-05-22T11:02:18.325Z,54186.66
2019-05-22T11:07:36.957Z,54173.54
2019-05-22T11:12:55.882Z,54186.66
2019-05-22T11:18:14.627Z,54207.86
2019-05-22T11:23:48.675Z,54175.56
2019-05-22T11:28:53.584Z,54184.64
2019-05-22T11:34:12.387Z,54183.63
2019-05-22T11:39:39.403Z,54195.75
2019-05-22T11:44:52.681Z,54198.77
2019-05-22T11:50:14.602Z,54160.42
2019-05-22T11:55:43.934Z,54170.51
2019-05-22T12:00:55.460Z,54157.39
2019-05-22T12:06:14.671Z,54209.87
2019-05-22T12:11:33.487Z,54172.53
2019-05-22T12:16:53.538Z,54192.72
2019-05-22T12:22:12.485Z,54196.76
2019-05-22T12:27:31.230Z,54192.72
2019-05-22T12:32:50.501Z,54177.58
2019-05-22T12:38:10.227Z,54157.39
2019-05-22T12:43:31.725Z,54213.91
2019-05-22T12:48:50.371Z,54180.61
2019-05-22T12:54:09.339Z,54188.68
2019-05-22T12:59:28.283Z,54147.30
2019-05-22T13:04:47.802Z,54172.53
2019-05-22T13:10:08.968Z,54193.73
2019-05-22T13:15:27.816Z,54189.69
2019-05-22T13:20:53.045Z,54173.54
2019-05-22T13:26:11.909Z,54197.77
2019-05-22T13:31:30.553Z,54216.94
2019-05-22T13:36:50.756Z,54169.50
2019-05-22T13:42:15.203Z,54149.32
2019-05-22T13:47:34.340Z,54176.57
2019-05-22T13:52:54.364Z,54183.63
2019-05-22T13:58:13.287Z,54175.56
2019-05-22T14:03:32.536Z,54205.84
2019-05-22T14:08:51.351Z,54182.62
2019-05-22T14:14:12.715Z,54173.54
2019-05-22T14:19:31.440Z,54145.28
2019-05-22T14:24:50.153Z,54178.59
2019-05-22T14:30:12.302Z,54194.74
2019-05-22T14:35:46.972Z,54150.33
2019-05-22T14:40:53.126Z,54156.38
2019-05-22T14:46:12.384Z,54179.60
2019-05-22T14:51:31.767Z,54212.91
2019-05-22T14:56:50.872Z,54194.74
2019-05-22T15:02:10.278Z,54180.61
2019-05-22T15:07:28.953Z,54180.61
2019-05-22T15:12:47.934Z,54203.82
2019-05-22T15:18:07.321Z,54155.37
2019-05-22T15:23:27.587Z,54170.51
2019-05-22T15:28:46.763Z,54177.58
2019-05-22T15:34:06.263Z,54174.55
2019-05-22T15:39:25.592Z,54158.40
2019-05-22T15:44:45.010Z,54207.86
2019-05-22T15:50:06.270Z,54231.07
2019-05-22T15:55:26.617Z,54194.74
2019-05-22T16:00:47.700Z,54186.66
2019-05-22T16:06:07.612Z,54212.91
2019-05-22T16:11:28.421Z,54169.50
2019-05-22T16:16:49.214Z,54188.68
2019-05-22T16:22:09.450Z,54160.42
2019-05-22T16:27:31.165Z,54186.66
2019-05-22T16:32:50.996Z,54145.28
2019-05-22T16:38:09.821Z,54181.62
2019-05-22T16:43:47.446Z,54154.36
2019-05-22T16:48:49.598Z,54199.79
2019-05-22T16:54:09.585Z,54209.87
2019-05-22T16:59:29.124Z,54172.53
2019-05-22T17:04:48.738Z,54128.12
2019-05-22T17:10:11.176Z,54128.12
2019-05-22T17:15:30.778Z,54150.33
2019-05-22T17:20:50.379Z,54199.79
2019-05-22T17:26:09.286Z,54143.26
2019-05-22T17:31:29.671Z,54170.51
2019-05-22T17:36:48.343Z,54175.56
2019-05-22T17:42:08.966Z,54168.50
2019-05-22T17:47:29.393Z,54223.00
2019-05-22T17:52:49.155Z,54193.73
2019-05-22T17:58:08.764Z,54166.48
2019-05-22T18:03:27.450Z,54175.56
2019-05-22T18:08:46.279Z,54151.34
2019-05-22T18:14:05.944Z,54174.55
2019-05-22T18:19:25.160Z,54152.35
2019-05-22T18:24:43.864Z,54152.35
2019-05-22T18:30:02.583Z,54164.46
2019-05-22T18:35:21.445Z,54167.48
2019-05-22T18:40:40.394Z,54156.38
2019-05-22T18:45:59.357Z,54149.32
2019-05-22T18:51:18.503Z,54152.35
2019-05-22T18:56:37.199Z,54150.33
2019-05-22T19:01:56.243Z,54161.43
2019-05-22T19:07:15.092Z,54150.33
2019-05-22T19:12:33.939Z,54157.39
2019-05-22T19:17:52.772Z,54129.13
2019-05-22T19:23:11.635Z,54129.13
2019-05-22T19:28:42.851Z,54150.33
2019-05-22T19:33:51.033Z,54145.28
2019-05-22T19:39:10.508Z,54120.05
2019-05-22T19:44:29.069Z,54141.24
2019-05-22T19:49:47.745Z,54113.99
2019-05-22T19:55:07.801Z,54120.05
2019-05-22T20:00:26.459Z,54193.73
2019-05-22T20:05:45.874Z,54125.09
2019-05-22T20:11:04.989Z,54133.17
2019-05-22T20:16:23.993Z,54118.03
2019-05-22T20:21:42.609Z,54103.90
2019-05-22T20:27:01.186Z,54106.93
2019-05-22T20:32:20.748Z,54109.96
2019-05-22T20:37:40.452Z,54126.11
2019-05-22T20:42:59.762Z,54116.01
2019-05-22T20:48:25.760Z,54122.07
2019-05-22T20:53:54.195Z,54120.05
2019-05-22T20:59:06.618Z,54155.37
2019-05-22T21:04:27.215Z,54150.33
2019-05-22T21:09:45.690Z,54122.07
2019-05-22T21:15:05.798Z,54160.42
2019-05-22T21:20:26.075Z,54111.97
2019-05-22T21:25:44.769Z,54150.33
2019-05-22T21:31:04.162Z,54124.09
2019-05-22T21:36:24.715Z,54105.92
2019-05-22T21:41:43.836Z,54107.94
2019-05-22T21:47:03.253Z,54125.09
2019-05-22T21:52:22.545Z,54118.03
2019-05-22T21:57:42.242Z,54134.18
2019-05-22T22:03:03.358Z,54135.19
2019-05-22T22:08:22.030Z,54100.87
2019-05-22T22:13:42.262Z,54122.07
2019-05-22T22:19:01.406Z,54119.04
2019-05-22T22:24:20.051Z,54117.02
2019-05-22T22:29:38.598Z,54121.06
2019-05-22T22:34:57.726Z,54093.81
2019-05-22T22:40:18.660Z,54126.11
2019-05-22T22:45:43.390Z,54126.11
2019-05-22T22:51:05.927Z,54131.15
2019-05-22T22:56:25.459Z,54158.40
2019-05-22T23:01:47.148Z,54158.40
2019-05-22T23:07:07.930Z,54107.94
2019-05-22T23:12:28.160Z,54107.94
2019-05-22T23:17:48.312Z,54133.17
2019-05-22T23:23:07.025Z,54137.21
2019-05-22T23:28:34.622Z,54138.21
2019-05-22T23:33:46.147Z,54126.11
2019-05-22T23:39:08.600Z,54113.99
2019-05-22T23:44:28.388Z,54125.09
2019-05-22T23:49:46.950Z,54122.07
2019-05-22T23:55:09.758Z,54092.80
